Relatórios de METAR próximas

 

LPAR - Alverca, Portugal
Distance from station: S 38km
Actualizado: 21/02/2020 22:00
NÃO Actual
Céu Limpo
Céu Limpo
 Vento de N
Vento: N 13 km/h
Temperatura: 17°C
Ponto de Orvalho: 8°C
Humidade: 56%
Barómetro: 1028 hPa
Resumo: Céu Limpo
Visibilidade: greater than 10 km
2020/02/21 22:00 LPAR 212200Z 01007KT CAVOK 17/08 Q1028
LPPT - Lisbon/Portela, Portugal
Distance from station: S 52km
Actualizado: 22/02/2020 12:00
Céu Limpo
Céu Limpo
 Vento de ENE
Vento: ENE 15 km/h
Temperatura: 18°C
Ponto de Orvalho: 8°C
Humidade: 52%
Barómetro: 1031 hPa
Resumo: Céu Limpo
Visibilidade: greater than 10 km
2020/02/22 12:00 LPPT 221200Z 06008KT CAVOK 18/08 Q1031
 
LPST - Sintra/Granja (a, Portugal
Distance from station: SSO 53km
Actualizado: 21/02/2020 17:00
NÃO Actual
Céu Limpo
Céu Limpo
 Vento de E
Vento: E 7 km/h
Temperatura: 21°C
Ponto de Orvalho: 8°C
Humidade: 43%
Barómetro: 1026 hPa
Resumo: Céu Limpo
Visibilidade: greater than 10 km
2020/02/21 17:00 LPST 211700Z 10004KT CAVOK 21/08 Q1026
LPMT - Montijo (por-Afb, Portugal
Distance from station: S 59km
Actualizado: 22/02/2020 12:00
Céu Limpo
Céu Limpo
 Vento de NNE
Vento: NNE 15 km/h
Temperatura: 17°C
Ponto de Orvalho: 10°C
Humidade: 64%
Barómetro: 1031 hPa
Resumo: Céu Limpo
Visibilidade: greater than 10 km
2020/02/22 12:00 LPMT 221200Z 02008KT CAVOK 17/10 Q1031
 
LPCS - Cascais, Portugal
Distance from station: SSO 63km
Actualizado: 22/02/2020 12:00
Céu Limpo
Céu Limpo
 Vento de E
Vento: E 15 km/h
Temperatura: 20°C
Ponto de Orvalho: 6°C
Humidade: 40%
Barómetro: 1031 hPa
Resumo: Céu Limpo
Visibilidade: greater than 10 km
2020/02/22 12:00 LPCS 221200Z 09008KT 050V120 CAVOK 20/06 Q1031
LPMR - Monte Real(Por-A, Portugal
Distance from station: N 67km
Actualizado: 22/02/2020 12:00
Céu Limpo
Céu Limpo
 Vento de N
Vento: N 7 km/h
Temperatura: 18°C
Ponto de Orvalho: 8°C
Humidade: 52%
Barómetro: 1032 hPa
Resumo: Céu Limpo
Visibilidade: greater than 10 km
2020/02/22 12:00 LPMR 221200Z 36004KT 320V040 CAVOK 18/08 Q1032